createdAt,value
2022-08-21T04:03:12.932Z,61.90
2022-08-21T04:05:42.593Z,61.44
2022-08-21T04:08:12.173Z,61.52
2022-08-21T04:10:42.117Z,61.71
2022-08-21T04:13:11.965Z,61.82
2022-08-21T04:15:41.839Z,61.76
2022-08-21T04:18:14.190Z,61.74
2022-08-21T04:20:45.377Z,62.29
2022-08-21T04:23:24.303Z,62.33
2022-08-21T04:25:54.208Z,62.23
2022-08-21T04:28:23.640Z,62.18
2022-08-21T04:30:58.845Z,62.48
2022-08-21T04:33:30.830Z,62.79
2022-08-21T04:36:00.184Z,62.41
2022-08-21T04:38:36.431Z,62.60
2022-08-21T04:41:08.038Z,62.72
2022-08-21T04:43:37.515Z,62.88
2022-08-21T04:46:06.905Z,63.31
2022-08-21T04:48:38.901Z,62.64
2022-08-21T04:51:11.901Z,62.03
2022-08-21T04:53:43.561Z,62.15
2022-08-21T04:56:15.147Z,61.87
2022-08-21T04:58:44.681Z,61.58
2022-08-21T05:01:17.161Z,61.78
2022-08-21T05:03:50.996Z,62.26
2022-08-21T05:06:21.086Z,62.22
2022-08-21T05:08:52.124Z,61.76
2022-08-21T05:11:31.509Z,62.09
2022-08-21T05:14:01.005Z,62.12
2022-08-21T05:16:37.368Z,62.00
2022-08-21T05:19:09.981Z,61.86
2022-08-21T05:21:41.357Z,62.09
2022-08-21T05:24:11.370Z,61.78
2022-08-21T05:26:46.243Z,61.93
2022-08-21T05:29:16.566Z,62.21
2022-08-21T05:31:46.125Z,62.67
2022-08-21T05:34:18.784Z,61.91
2022-08-21T05:36:48.604Z,62.03
2022-08-21T05:39:18.225Z,61.99
2022-08-21T05:41:48.738Z,61.42
2022-08-21T05:44:18.095Z,61.53
2022-08-21T05:46:49.821Z,61.35
2022-08-21T05:49:23.259Z,61.56
2022-08-21T05:51:52.608Z,60.95
2022-08-21T05:54:21.982Z,61.21
2022-08-21T05:56:51.335Z,60.92
2022-08-21T05:59:21.032Z,60.42
2022-08-21T06:01:51.199Z,59.97
2022-08-21T06:04:23.293Z,59.93
2022-08-21T06:06:52.632Z,59.71
2022-08-21T06:09:22.102Z,59.76
2022-08-21T06:11:51.496Z,58.93
2022-08-21T06:14:20.849Z,58.87
2022-08-21T06:16:50.217Z,58.24
2022-08-21T06:19:19.583Z,58.20
2022-08-21T06:21:51.523Z,58.24
2022-08-21T06:24:20.879Z,58.13
2022-08-21T06:26:50.256Z,57.83
2022-08-21T06:29:20.900Z,57.74
2022-08-21T06:31:50.809Z,57.40
2022-08-21T06:34:20.316Z,56.96
2022-08-21T06:36:52.274Z,56.71
2022-08-21T06:39:24.869Z,57.09
2022-08-21T06:41:56.098Z,57.09
2022-08-21T06:44:31.315Z,56.31
2022-08-21T06:47:00.663Z,56.41
2022-08-21T06:49:30.044Z,55.80
2022-08-21T06:52:01.975Z,56.11
2022-08-21T06:54:31.711Z,55.47
2022-08-21T06:57:01.022Z,55.88
2022-08-21T06:59:30.433Z,55.52
2022-08-21T07:01:59.870Z,55.46
2022-08-21T07:04:29.367Z,54.44
2022-08-21T07:06:58.709Z,54.29
2022-08-21T07:09:30.642Z,53.37
2022-08-21T07:12:00.227Z,53.69
2022-08-21T07:14:29.600Z,53.37
2022-08-21T07:16:58.952Z,53.16
2022-08-21T07:19:28.298Z,53.46
2022-08-21T07:22:01.337Z,52.78
2022-08-21T07:24:33.277Z,52.54
2022-08-21T07:27:04.383Z,52.51
2022-08-21T07:29:36.463Z,51.79
2022-08-21T07:32:05.926Z,51.25
2022-08-21T07:34:35.413Z,51.32
2022-08-21T07:37:06.349Z,51.29
2022-08-21T07:39:42.097Z,51.19
2022-08-21T07:42:11.582Z,50.91
2022-08-21T07:44:40.928Z,50.48
2022-08-21T07:47:10.261Z,50.75
2022-08-21T07:49:39.629Z,50.32
2022-08-21T07:52:09.017Z,49.76
2022-08-21T07:54:38.612Z,49.26
2022-08-21T07:57:10.651Z,49.09
2022-08-21T07:59:39.991Z,48.59
2022-08-21T08:02:09.320Z,48.18
2022-08-21T08:04:38.720Z,47.71
2022-08-21T08:07:20.358Z,47.10
2022-08-21T08:09:49.763Z,47.10
2022-08-21T08:12:21.951Z,45.75
2022-08-21T08:14:51.336Z,45.71
2022-08-21T08:17:23.202Z,45.69
2022-08-21T08:19:52.669Z,45.69
2022-08-21T08:22:24.827Z,45.59
2022-08-21T08:24:54.914Z,45.21
2022-08-21T08:27:26.834Z,44.79
2022-08-21T08:29:56.608Z,43.85
2022-08-21T08:32:26.194Z,43.82
2022-08-21T08:34:55.577Z,43.62
2022-08-21T08:37:25.827Z,43.01
2022-08-21T08:40:05.500Z,42.84
2022-08-21T08:42:38.357Z,42.00
2022-08-21T08:45:09.629Z,41.59
2022-08-21T08:47:41.335Z,42.48
2022-08-21T08:50:12.684Z,41.27
2022-08-21T08:52:46.378Z,41.76
2022-08-21T08:55:18.137Z,40.85
2022-08-21T08:57:51.303Z,40.74
2022-08-21T09:00:22.772Z,40.90
2022-08-21T09:02:55.616Z,40.38
2022-08-21T09:05:26.279Z,39.53
2022-08-21T09:08:01.653Z,39.80
2022-08-21T09:10:34.731Z,39.85
2022-08-21T09:13:09.565Z,38.95
2022-08-21T09:15:43.993Z,38.78
2022-08-21T09:18:23.216Z,38.66
2022-08-21T09:21:00.193Z,38.16
2022-08-21T09:23:33.433Z,37.02
2022-08-21T09:26:05.943Z,37.61
2022-08-21T09:28:38.987Z,37.52
2022-08-21T09:31:10.380Z,37.73
2022-08-21T09:33:39.808Z,37.07
2022-08-21T09:36:09.597Z,36.99
2022-08-21T09:38:40.437Z,37.22
2022-08-21T09:41:11.955Z,36.85
2022-08-21T09:43:43.981Z,36.67
2022-08-21T09:46:14.480Z,36.68
2022-08-21T09:48:48.887Z,37.21
2022-08-21T09:51:19.451Z,35.15
2022-08-21T09:53:51.455Z,35.33
2022-08-21T09:56:35.174Z,36.07
2022-08-21T09:59:16.028Z,35.25
2022-08-21T10:01:47.091Z,35.25
2022-08-21T10:04:16.869Z,35.04
2022-08-21T10:06:46.330Z,34.79
2022-08-21T10:09:21.017Z,35.04
2022-08-21T10:11:56.643Z,34.96
2022-08-21T10:14:39.978Z,34.96
2022-08-21T10:17:13.272Z,34.97
2022-08-21T10:19:47.395Z,33.83
2022-08-21T10:22:22.759Z,33.60
2022-08-21T10:24:56.253Z,34.08
2022-08-21T10:27:31.921Z,34.28
2022-08-21T10:30:05.581Z,34.57
2022-08-21T10:32:44.788Z,34.09
2022-08-21T10:35:16.676Z,34.22
2022-08-21T10:37:52.518Z,34.32
2022-08-21T10:40:25.944Z,33.62
2022-08-21T10:43:02.862Z,33.68
2022-08-21T10:45:42.069Z,33.44
2022-08-21T10:48:16.381Z,33.21
2022-08-21T10:50:48.368Z,32.63
2022-08-21T10:53:26.238Z,32.85
2022-08-21T10:55:58.983Z,32.42
2022-08-21T10:58:30.709Z,32.62
2022-08-21T11:01:07.617Z,32.45
2022-08-21T11:03:39.424Z,31.61
2022-08-21T11:06:12.681Z,30.94
2022-08-21T11:08:43.839Z,30.89
2022-08-21T11:11:19.939Z,30.97
2022-08-21T11:13:53.467Z,30.13
2022-08-21T11:16:29.879Z,29.91
2022-08-21T11:19:02.328Z,29.82
2022-08-21T11:21:35.887Z,29.54
2022-08-21T11:24:07.533Z,29.58
2022-08-21T11:26:39.493Z,30.13
2022-08-21T11:29:12.294Z,29.77
2022-08-21T11:31:51.616Z,29.66
2022-08-21T11:34:27.147Z,29.53
2022-08-21T11:37:02.819Z,28.96
2022-08-21T11:39:38.951Z,29.25
2022-08-21T11:42:26.229Z,28.30
2022-08-21T11:44:59.966Z,28.35
2022-08-21T11:47:36.888Z,26.96
2022-08-21T11:50:29.660Z,27.47
2022-08-21T11:53:03.623Z,27.30
2022-08-21T11:55:35.790Z,27.51
2022-08-21T11:58:10.648Z,26.68
2022-08-21T12:00:42.531Z,27.04
2022-08-21T12:03:16.916Z,26.62
2022-08-21T12:05:55.571Z,27.36
2022-08-21T12:08:31.462Z,27.64
2022-08-21T12:11:06.309Z,27.65
2022-08-21T12:13:40.381Z,27.45
2022-08-21T12:16:13.854Z,27.25
2022-08-21T12:18:46.740Z,27.65
2022-08-21T12:21:27.368Z,27.61
2022-08-21T12:24:04.789Z,27.07
2022-08-21T12:26:35.617Z,26.87
2022-08-21T12:29:11.143Z,26.58
2022-08-21T12:31:50.649Z,26.77
2022-08-21T12:34:23.891Z,26.50
2022-08-21T12:36:57.031Z,27.07
2022-08-21T12:39:27.716Z,27.17
2022-08-21T12:42:01.978Z,27.00
2022-08-21T12:44:35.917Z,26.18
2022-08-21T12:47:06.796Z,26.31
2022-08-21T12:49:40.822Z,26.71
2022-08-21T12:52:15.115Z,26.42
2022-08-21T12:54:45.648Z,26.07
2022-08-21T12:57:22.510Z,25.64
2022-08-21T12:59:55.727Z,25.27
2022-08-21T13:02:27.315Z,25.12
2022-08-21T13:04:59.869Z,25.50
2022-08-21T13:07:32.012Z,25.62
2022-08-21T13:10:03.873Z,25.60
2022-08-21T13:12:34.261Z,25.45
2022-08-21T13:15:08.356Z,24.95
2022-08-21T13:17:40.528Z,24.60
2022-08-21T13:20:13.874Z,23.68
2022-08-21T13:22:47.396Z,24.05
2022-08-21T13:25:17.672Z,24.59
2022-08-21T13:27:49.020Z,24.25
2022-08-21T13:30:23.197Z,24.71
2022-08-21T13:32:55.172Z,23.88
2022-08-21T13:35:31.822Z,24.16
2022-08-21T13:38:03.279Z,24.97
2022-08-21T13:40:46.208Z,24.74
2022-08-21T13:43:19.959Z,24.55
2022-08-21T13:45:52.180Z,24.67
2022-08-21T13:48:22.087Z,24.65
2022-08-21T13:50:54.513Z,24.17
2022-08-21T13:53:25.458Z,24.00
2022-08-21T13:55:59.956Z,24.14
2022-08-21T13:58:31.142Z,24.34
2022-08-21T14:01:01.662Z,23.55
2022-08-21T14:03:36.278Z,23.72
2022-08-21T14:06:14.749Z,23.54
2022-08-21T14:08:44.724Z,23.35
2022-08-21T14:11:15.470Z,23.21
2022-08-21T14:13:46.130Z,23.30
2022-08-21T14:16:18.295Z,23.23
2022-08-21T14:18:52.804Z,23.03
2022-08-21T14:21:33.300Z,23.27
2022-08-21T14:24:03.744Z,23.17
2022-08-21T14:26:33.395Z,23.86
2022-08-21T14:29:09.637Z,24.02
2022-08-21T14:31:43.275Z,23.62
2022-08-21T14:34:19.315Z,23.36
2022-08-21T14:36:52.238Z,23.64
2022-08-21T14:39:21.739Z,23.67
2022-08-21T14:41:51.719Z,23.32
2022-08-21T14:44:21.805Z,23.20
2022-08-21T14:46:55.546Z,22.53
2022-08-21T14:49:27.391Z,23.08
2022-08-21T14:52:00.563Z,22.90
2022-08-21T14:54:31.632Z,22.79
2022-08-21T14:57:02.406Z,22.77
2022-08-21T14:59:32.958Z,22.61
2022-08-21T15:02:02.428Z,22.41
2022-08-21T15:04:31.759Z,22.79
2022-08-21T15:07:03.663Z,21.97
2022-08-21T15:09:33.059Z,21.91
2022-08-21T15:12:04.036Z,21.86
2022-08-21T15:14:34.758Z,21.37
2022-08-21T15:17:04.761Z,21.50
2022-08-21T15:19:34.190Z,21.39
2022-08-21T15:22:06.263Z,21.15
2022-08-21T15:24:44.999Z,21.50
2022-08-21T15:27:16.834Z,21.32
2022-08-21T15:29:46.233Z,21.32
2022-08-21T15:32:20.927Z,20.89
2022-08-21T15:34:50.369Z,20.58
2022-08-21T15:37:22.585Z,20.95
2022-08-21T15:39:54.173Z,21.41
2022-08-21T15:42:24.264Z,21.12
2022-08-21T15:44:53.825Z,20.58
2022-08-21T15:47:26.047Z,20.66
2022-08-21T15:49:55.446Z,20.45
2022-08-21T15:52:27.400Z,20.57
2022-08-21T15:54:56.833Z,20.00
2022-08-21T15:57:27.157Z,20.42
2022-08-21T15:59:58.204Z,20.56
2022-08-21T16:02:29.242Z,20.80
2022-08-21T16:04:59.272Z,20.85
2022-08-21T16:07:31.262Z,20.81
2022-08-21T16:10:00.752Z,20.10
2022-08-21T16:12:31.872Z,20.29
2022-08-21T16:15:01.465Z,20.18
2022-08-21T16:17:32.518Z,20.22
2022-08-21T16:20:03.545Z,20.26
2022-08-21T16:22:43.862Z,20.22
2022-08-21T16:25:15.010Z,20.36
2022-08-21T16:27:45.231Z,20.88
2022-08-21T16:30:15.505Z,20.57
2022-08-21T16:32:45.143Z,20.74
2022-08-21T16:35:16.094Z,20.71
2022-08-21T16:37:52.468Z,20.41
2022-08-21T16:40:23.251Z,20.60
2022-08-21T16:42:53.501Z,20.43
2022-08-21T16:45:23.371Z,20.53
2022-08-21T16:47:52.793Z,20.78
2022-08-21T16:50:25.851Z,20.26
2022-08-21T16:52:58.008Z,21.04
2022-08-21T16:55:27.587Z,21.34
2022-08-21T16:57:57.005Z,21.28
2022-08-21T17:00:26.393Z,21.44
2022-08-21T17:02:57.367Z,21.45
2022-08-21T17:05:26.912Z,21.72
2022-08-21T17:07:58.872Z,21.55
2022-08-21T17:10:28.337Z,21.80
2022-08-21T17:13:00.903Z,22.13
2022-08-21T17:15:32.359Z,22.60
2022-08-21T17:18:02.129Z,22.33
2022-08-21T17:20:31.499Z,22.62
2022-08-21T17:23:03.500Z,22.29
2022-08-21T17:25:33.548Z,22.82
2022-08-21T17:28:03.176Z,23.16
2022-08-21T17:30:32.555Z,23.17
2022-08-21T17:33:02.701Z,23.33
2022-08-21T17:35:32.135Z,23.29
2022-08-21T17:38:04.119Z,23.60
2022-08-21T17:40:36.705Z,23.57
2022-08-21T17:43:11.603Z,23.75
2022-08-21T17:45:42.910Z,23.76
2022-08-21T17:48:12.323Z,23.71
2022-08-21T17:50:42.337Z,24.11
2022-08-21T17:53:14.285Z,24.34
2022-08-21T17:55:44.363Z,24.22
2022-08-21T17:58:15.652Z,24.78
2022-08-21T18:00:45.627Z,25.24
2022-08-21T18:03:17.460Z,25.44
2022-08-21T18:05:47.261Z,25.60
2022-08-21T18:08:19.403Z,25.92
2022-08-21T18:10:50.367Z,26.23
2022-08-21T18:13:20.845Z,26.47
2022-08-21T18:15:52.810Z,26.73
2022-08-21T18:18:22.444Z,26.84
2022-08-21T18:20:53.104Z,27.04
2022-08-21T18:23:43.549Z,27.49
2022-08-21T18:26:16.357Z,28.02
2022-08-21T18:28:46.501Z,27.81
2022-08-21T18:31:16.339Z,28.29
2022-08-21T18:33:57.769Z,28.31
2022-08-21T18:36:29.332Z,28.68
2022-08-21T18:39:25.825Z,29.00
2022-08-21T18:41:51.897Z,29.06
2022-08-21T18:44:22.531Z,29.20
2022-08-21T18:46:54.409Z,29.69
2022-08-21T18:49:24.459Z,29.59
2022-08-21T18:51:53.941Z,29.83
2022-08-21T18:54:26.567Z,30.47
2022-08-21T18:56:56.419Z,30.20
2022-08-21T18:59:28.391Z,30.82
2022-08-21T19:01:58.936Z,30.88
2022-08-21T19:04:43.575Z,31.00
2022-08-21T19:07:14.274Z,31.57
2022-08-21T19:10:01.961Z,31.53
2022-08-21T19:12:36.971Z,31.93
2022-08-21T19:15:10.145Z,31.57
2022-08-21T19:17:39.852Z,32.08
2022-08-21T19:20:19.489Z,31.92
2022-08-21T19:25:51.746Z,32.56
2022-08-21T19:28:24.786Z,33.08
2022-08-21T19:30:57.882Z,32.85
2022-08-21T19:33:29.953Z,33.29
2022-08-21T19:35:59.561Z,33.54
2022-08-21T19:38:29.376Z,33.42
2022-08-21T19:41:01.655Z,33.53
2022-08-21T19:43:35.218Z,33.44
2022-08-21T19:46:05.767Z,33.58
2022-08-21T19:48:35.232Z,33.86
2022-08-21T19:51:05.006Z,34.18
2022-08-21T19:53:35.083Z,34.21
2022-08-21T19:56:07.184Z,34.70
2022-08-21T19:58:41.501Z,34.40
2022-08-21T20:01:16.879Z,34.65
2022-08-21T20:03:54.477Z,34.88
2022-08-21T20:06:25.243Z,35.44
2022-08-21T20:08:55.236Z,35.81
2022-08-21T20:11:31.526Z,35.59
2022-08-21T20:14:01.719Z,35.89
2022-08-21T20:16:31.669Z,36.06
2022-08-21T20:19:03.262Z,35.58
2022-08-21T20:21:43.546Z,36.08
2022-08-21T20:24:14.762Z,36.32
2022-08-21T20:26:49.526Z,36.34
2022-08-21T20:29:23.917Z,36.33
2022-08-21T20:31:54.111Z,36.24
2022-08-21T20:34:25.513Z,36.88
2022-08-21T20:36:55.088Z,36.84
2022-08-21T20:39:24.774Z,37.41
2022-08-21T20:41:57.646Z,37.41
2022-08-21T20:44:30.742Z,37.64
2022-08-21T20:47:01.475Z,37.81
2022-08-21T20:49:41.195Z,38.20
2022-08-21T20:52:10.909Z,38.19
2022-08-21T20:54:45.522Z,38.12
2022-08-21T20:57:21.911Z,38.42
2022-08-21T20:59:54.740Z,38.77
2022-08-21T21:02:29.724Z,39.26
2022-08-21T21:05:05.292Z,39.19
2022-08-21T21:07:37.997Z,39.44
2022-08-21T21:10:10.726Z,39.61
2022-08-21T21:12:48.824Z,40.34
2022-08-21T21:15:27.875Z,40.66
2022-08-21T21:18:03.463Z,40.15
2022-08-21T21:20:37.527Z,40.24
2022-08-21T21:23:14.121Z,40.27
2022-08-21T21:25:53.996Z,40.38
2022-08-21T21:28:29.197Z,40.25
2022-08-21T21:30:58.617Z,40.80
2022-08-21T21:33:33.513Z,40.88
2022-08-21T21:36:09.081Z,40.73
2022-08-21T21:38:51.933Z,40.94
2022-08-21T21:41:25.809Z,41.13
2022-08-21T21:44:07.388Z,41.16
2022-08-21T21:46:46.145Z,41.56
2022-08-21T21:49:32.997Z,41.47
2022-08-21T21:52:06.121Z,42.44
2022-08-21T21:55:00.424Z,42.01
2022-08-21T21:57:40.211Z,42.51
2022-08-21T22:00:14.280Z,42.21
2022-08-21T22:02:49.180Z,42.74
2022-08-21T22:05:24.331Z,43.03
2022-08-21T22:07:59.831Z,43.11
2022-08-21T22:10:33.725Z,42.94
2022-08-21T22:13:26.271Z,42.75
2022-08-21T22:15:58.944Z,42.76
2022-08-21T22:18:32.126Z,42.63
2022-08-21T22:21:05.339Z,42.97
2022-08-21T22:23:37.161Z,43.41
2022-08-21T22:26:09.660Z,43.64
2022-08-21T22:28:40.699Z,43.31
2022-08-21T22:31:18.104Z,43.54
2022-08-21T22:34:02.520Z,43.37
2022-08-21T22:36:33.543Z,43.50
2022-08-21T22:39:03.990Z,44.02
2022-08-21T22:41:34.825Z,43.89
2022-08-21T22:44:05.695Z,44.17
2022-08-21T22:46:39.189Z,44.42
2022-08-21T22:49:11.805Z,44.57
2022-08-21T22:51:43.337Z,44.29
2022-08-21T22:54:21.754Z,44.18
2022-08-21T22:56:59.858Z,44.18
2022-08-21T22:59:30.647Z,43.73
2022-08-21T23:02:04.523Z,44.04
2022-08-21T23:04:34.453Z,43.50
2022-08-21T23:07:06.095Z,43.90
2022-08-21T23:09:37.371Z,44.30
2022-08-21T23:14:58.347Z,43.80
2022-08-21T23:17:37.349Z,44.43
2022-08-21T23:20:10.335Z,44.43
2022-08-21T23:22:44.421Z,44.37
2022-08-21T23:25:29.819Z,44.52
2022-08-21T23:28:05.075Z,45.02
2022-08-21T23:30:42.762Z,45.28
2022-08-21T23:33:27.173Z,45.15
2022-08-21T23:36:15.843Z,45.59
2022-08-21T23:38:53.293Z,45.85
2022-08-21T23:41:34.493Z,45.73
2022-08-21T23:44:11.178Z,45.46
2022-08-21T23:46:55.277Z,45.44
2022-08-21T23:49:35.110Z,45.74
2022-08-21T23:52:12.597Z,45.41
2022-08-21T23:54:48.368Z,45.68
2022-08-21T23:57:31.358Z,45.57
